sensor_id;sensor_type;location;lat;lon;timestamp;pressure;altitude;pressure_sealevel;temperature;humidity
68230;BME280;55048;52.220;5.160;2023-03-18T00:00:29;100664.94;;;13.59;71.83
68230;BME280;55048;52.220;5.160;2023-03-18T00:02:55;100665.78;;;13.65;71.81
68230;BME280;55048;52.220;5.160;2023-03-18T00:05:20;100666.03;;;13.58;71.97
68230;BME280;55048;52.220;5.160;2023-03-18T00:07:45;100659.59;;;13.54;72.01
68230;BME280;55048;52.220;5.160;2023-03-18T00:10:12;100670.59;;;13.63;71.78
68230;BME280;55048;52.220;5.160;2023-03-18T00:12:39;100666.53;;;13.60;71.86
68230;BME280;55048;52.220;5.160;2023-03-18T00:15:07;100667.09;;;13.62;72.02
68230;BME280;55048;52.220;5.160;2023-03-18T00:17:33;100642.72;;;13.43;72.13
68230;BME280;55048;52.220;5.160;2023-03-18T00:19:59;100649.09;;;13.42;72.01
68230;BME280;55048;52.220;5.160;2023-03-18T00:22:34;100663.31;;;13.53;72.33
68230;BME280;55048;52.220;5.160;2023-03-18T00:25:01;100673.75;;;13.55;72.41
68230;BME280;55048;52.220;5.160;2023-03-18T00:27:27;100676.94;;;13.57;72.37
68230;BME280;55048;52.220;5.160;2023-03-18T00:29:53;100635.63;;;13.22;72.48
68230;BME280;55048;52.220;5.160;2023-03-18T00:32:18;100672.09;;;13.43;72.74
68230;BME280;55048;52.220;5.160;2023-03-18T00:34:44;100666.72;;;13.38;72.84
68230;BME280;55048;52.220;5.160;2023-03-18T00:37:10;100662.69;;;13.36;73.02
68230;BME280;55048;52.220;5.160;2023-03-18T00:39:43;100657.84;;;13.33;73.04
68230;BME280;55048;52.220;5.160;2023-03-18T00:42:11;100683.34;;;13.50;72.98
68230;BME280;55048;52.220;5.160;2023-03-18T00:44:37;100685.97;;;13.45;72.81
68230;BME280;55048;52.220;5.160;2023-03-18T00:47:04;100675.28;;;13.40;73.06
68230;BME280;55048;52.220;5.160;2023-03-18T00:49:33;100656.50;;;13.25;73.20
68230;BME280;55048;52.220;5.160;2023-03-18T00:51:59;100632.06;;;13.06;73.27
68230;BME280;55048;52.220;5.160;2023-03-18T00:54:24;100696.38;;;13.42;73.01
68230;BME280;55048;52.220;5.160;2023-03-18T00:56:50;100678.97;;;13.29;73.56
68230;BME280;55048;52.220;5.160;2023-03-18T00:59:15;100688.88;;;13.34;73.96
68230;BME280;55048;52.220;5.160;2023-03-18T01:01:42;100668.16;;;13.19;73.91
68230;BME280;55048;52.220;5.160;2023-03-18T01:04:08;100687.75;;;13.24;73.57
68230;BME280;55048;52.220;5.160;2023-03-18T01:06:35;100646.44;;;13.05;73.71
68230;BME280;55048;52.220;5.160;2023-03-18T01:09:02;100688.81;;;13.28;73.92
68230;BME280;55048;52.220;5.160;2023-03-18T01:11:29;100678.09;;;13.23;74.04
68230;BME280;55048;52.220;5.160;2023-03-18T01:13:54;100659.09;;;13.20;74.14
68230;BME280;55048;52.220;5.160;2023-03-18T01:16:20;100669.84;;;13.25;73.98
68230;BME280;55048;52.220;5.160;2023-03-18T01:18:47;100686.19;;;13.34;73.95
68230;BME280;55048;52.220;5.160;2023-03-18T01:21:13;100668.50;;;13.27;73.96
68230;BME280;55048;52.220;5.160;2023-03-18T01:23:52;100661.22;;;13.18;73.93
68230;BME280;55048;52.220;5.160;2023-03-18T01:26:18;100666.06;;;13.21;74.06
68230;BME280;55048;52.220;5.160;2023-03-18T01:28:44;100662.88;;;13.24;74.05
68230;BME280;55048;52.220;5.160;2023-03-18T01:31:11;100661.47;;;13.16;74.11
68230;BME280;55048;52.220;5.160;2023-03-18T01:33:38;100674.38;;;13.24;74.24
68230;BME280;55048;52.220;5.160;2023-03-18T01:36:05;100693.38;;;13.33;74.37
68230;BME280;55048;52.220;5.160;2023-03-18T01:38:32;100666.84;;;13.21;74.39
68230;BME280;55048;52.220;5.160;2023-03-18T01:41:07;100681.38;;;13.36;74.27
68230;BME280;55048;52.220;5.160;2023-03-18T01:43:35;100680.59;;;13.35;74.27
68230;BME280;55048;52.220;5.160;2023-03-18T01:46:36;100681.91;;;13.33;74.56
68230;BME280;55048;52.220;5.160;2023-03-18T01:49:16;100675.44;;;13.23;74.51
68230;BME280;55048;52.220;5.160;2023-03-18T01:52:13;100681.88;;;13.27;74.82
68230;BME280;55048;52.220;5.160;2023-03-18T01:54:48;100676.72;;;13.21;74.35
68230;BME280;55048;52.220;5.160;2023-03-18T01:57:18;100669.19;;;13.13;74.76
68230;BME280;55048;52.220;5.160;2023-03-18T01:59:47;100670.25;;;13.12;74.66
68230;BME280;55048;52.220;5.160;2023-03-18T02:02:14;100676.94;;;13.14;74.70
68230;BME280;55048;52.220;5.160;2023-03-18T02:04:47;100689.53;;;13.19;74.90
68230;BME280;55048;52.220;5.160;2023-03-18T02:07:16;100686.00;;;13.13;75.33
68230;BME280;55048;52.220;5.160;2023-03-18T02:09:42;100654.63;;;12.88;75.32
68230;BME280;55048;52.220;5.160;2023-03-18T02:12:10;100685.97;;;13.08;75.66
68230;BME280;55048;52.220;5.160;2023-03-18T02:14:37;100650.28;;;12.82;75.63
68230;BME280;55048;52.220;5.160;2023-03-18T02:17:08;100641.16;;;12.73;75.79
68230;BME280;55048;52.220;5.160;2023-03-18T02:19:48;100692.06;;;12.98;76.41
68230;BME280;55048;52.220;5.160;2023-03-18T02:22:25;100651.88;;;12.78;75.92
68230;BME280;55048;52.220;5.160;2023-03-18T02:27:50;100697.91;;;12.95;76.27
68230;BME280;55048;52.220;5.160;2023-03-18T02:30:22;100704.88;;;12.96;76.70
68230;BME280;55048;52.220;5.160;2023-03-18T02:32:52;100679.13;;;12.85;76.61
68230;BME280;55048;52.220;5.160;2023-03-18T02:35:19;100694.38;;;12.90;76.55
68230;BME280;55048;52.220;5.160;2023-03-18T02:37:45;100698.69;;;12.96;76.83
68230;BME280;55048;52.220;5.160;2023-03-18T02:40:21;100703.81;;;12.97;76.83
68230;BME280;55048;52.220;5.160;2023-03-18T02:42:48;100689.63;;;12.92;76.76
68230;BME280;55048;52.220;5.160;2023-03-18T02:45:37;100700.88;;;12.99;77.14
68230;BME280;55048;52.220;5.160;2023-03-18T02:48:15;100705.91;;;12.95;77.00
68230;BME280;55048;52.220;5.160;2023-03-18T02:50:41;100713.69;;;12.97;77.03
68230;BME280;55048;52.220;5.160;2023-03-18T02:53:10;100708.03;;;12.93;76.71
68230;BME280;55048;52.220;5.160;2023-03-18T02:55:36;100711.78;;;12.92;76.97
68230;BME280;55048;52.220;5.160;2023-03-18T02:58:02;100701.25;;;12.81;77.03
68230;BME280;55048;52.220;5.160;2023-03-18T03:00:27;100715.19;;;12.88;77.16
68230;BME280;55048;52.220;5.160;2023-03-18T03:02:53;100672.34;;;12.72;77.39
68230;BME280;55048;52.220;5.160;2023-03-18T03:05:18;100690.06;;;12.84;77.53
68230;BME280;55048;52.220;5.160;2023-03-18T03:07:45;100702.41;;;12.90;77.66
68230;BME280;55048;52.220;5.160;2023-03-18T03:10:11;100684.44;;;12.80;77.62
68230;BME280;55048;52.220;5.160;2023-03-18T03:12:39;100689.81;;;12.85;77.61
68230;BME280;55048;52.220;5.160;2023-03-18T03:15:07;100686.03;;;12.81;77.52
68230;BME280;55048;52.220;5.160;2023-03-18T03:17:34;100720.31;;;12.94;77.54
68230;BME280;55048;52.220;5.160;2023-03-18T03:20:01;100696.69;;;12.76;77.54
68230;BME280;55048;52.220;5.160;2023-03-18T03:22:31;100707.19;;;12.88;77.65
68230;BME280;55048;52.220;5.160;2023-03-18T03:24:56;100696.47;;;12.83;77.50
68230;BME280;55048;52.220;5.160;2023-03-18T03:27:22;100688.13;;;12.74;77.68
68230;BME280;55048;52.220;5.160;2023-03-18T03:29:47;100717.59;;;12.89;77.70
68230;BME280;55048;52.220;5.160;2023-03-18T03:32:13;100713.53;;;12.82;77.79
68230;BME280;55048;52.220;5.160;2023-03-18T03:34:39;100677.31;;;12.59;77.40
68230;BME280;55048;52.220;5.160;2023-03-18T03:37:05;100728.75;;;12.81;78.22
68230;BME280;55048;52.220;5.160;2023-03-18T03:39:31;100642.63;;;12.27;78.06
68230;BME280;55048;52.220;5.160;2023-03-18T03:41:56;100714.25;;;12.72;78.28
68230;BME280;55048;52.220;5.160;2023-03-18T03:44:22;100690.59;;;12.54;78.13
68230;BME280;55048;52.220;5.160;2023-03-18T03:46:48;100679.03;;;12.43;78.27
68230;BME280;55048;52.220;5.160;2023-03-18T03:49:14;100701.00;;;12.50;78.25
68230;BME280;55048;52.220;5.160;2023-03-18T03:51:39;100680.53;;;12.34;78.39
68230;BME280;55048;52.220;5.160;2023-03-18T03:54:06;100658.91;;;12.30;78.36
68230;BME280;55048;52.220;5.160;2023-03-18T03:56:34;100622.63;;;12.02;78.57
68230;BME280;55048;52.220;5.160;2023-03-18T03:59:00;100681.66;;;12.38;78.63
68230;BME280;55048;52.220;5.160;2023-03-18T04:01:44;100713.09;;;12.63;78.49
68230;BME280;55048;52.220;5.160;2023-03-18T04:04:10;100719.50;;;12.62;78.48
68230;BME280;55048;52.220;5.160;2023-03-18T04:06:36;100724.56;;;12.63;78.87
68230;BME280;55048;52.220;5.160;2023-03-18T04:09:02;100733.69;;;12.67;78.88
68230;BME280;55048;52.220;5.160;2023-03-18T04:11:30;100698.88;;;12.52;79.07
68230;BME280;55048;52.220;5.160;2023-03-18T04:13:55;100685.13;;;12.38;79.49
68230;BME280;55048;52.220;5.160;2023-03-18T04:16:21;100717.63;;;12.62;79.80
68230;BME280;55048;52.220;5.160;2023-03-18T04:18:47;100688.84;;;12.37;79.82
68230;BME280;55048;52.220;5.160;2023-03-18T04:21:12;100723.28;;;12.66;79.99
68230;BME280;55048;52.220;5.160;2023-03-18T04:23:45;100726.25;;;12.69;80.60
68230;BME280;55048;52.220;5.160;2023-03-18T04:26:11;100727.59;;;12.72;79.49
68230;BME280;55048;52.220;5.160;2023-03-18T04:28:37;100734.47;;;12.68;80.37
68230;BME280;55048;52.220;5.160;2023-03-18T04:31:05;100715.97;;;12.56;81.60
68230;BME280;55048;52.220;5.160;2023-03-18T04:33:31;100726.38;;;12.58;80.72
68230;BME280;55048;52.220;5.160;2023-03-18T04:35:56;100753.78;;;12.75;80.67
68230;BME280;55048;52.220;5.160;2023-03-18T04:38:22;100658.50;;;12.16;80.46
68230;BME280;55048;52.220;5.160;2023-03-18T04:40:50;100721.84;;;12.58;81.06
68230;BME280;55048;52.220;5.160;2023-03-18T04:43:16;100736.31;;;12.62;81.95
68230;BME280;55048;52.220;5.160;2023-03-18T04:45:42;100734.41;;;12.58;81.54
68230;BME280;55048;52.220;5.160;2023-03-18T04:48:07;100743.00;;;12.65;81.52
68230;BME280;55048;52.220;5.160;2023-03-18T04:50:37;100743.75;;;12.60;82.14
68230;BME280;55048;52.220;5.160;2023-03-18T04:53:06;100715.31;;;12.44;82.00
68230;BME280;55048;52.220;5.160;2023-03-18T04:55:32;100700.06;;;12.39;81.56
68230;BME280;55048;52.220;5.160;2023-03-18T04:58:00;100762.03;;;12.73;81.45
68230;BME280;55048;52.220;5.160;2023-03-18T05:00:27;100720.47;;;12.50;81.38
68230;BME280;55048;52.220;5.160;2023-03-18T05:03:03;100742.72;;;12.61;81.21
68230;BME280;55048;52.220;5.160;2023-03-18T05:05:28;100742.72;;;12.61;81.46
68230;BME280;55048;52.220;5.160;2023-03-18T05:07:54;100764.09;;;12.66;81.35
68230;BME280;55048;52.220;5.160;2023-03-18T05:10:20;100762.22;;;12.67;81.35
68230;BME280;55048;52.220;5.160;2023-03-18T05:12:46;100758.22;;;12.64;81.32
68230;BME280;55048;52.220;5.160;2023-03-18T05:15:14;100783.38;;;12.73;81.48
68230;BME280;55048;52.220;5.160;2023-03-18T05:17:45;100731.53;;;12.37;81.45
68230;BME280;55048;52.220;5.160;2023-03-18T05:20:11;100803.69;;;12.74;82.04
68230;BME280;55048;52.220;5.160;2023-03-18T05:22:38;100808.22;;;12.74;81.57
68230;BME280;55048;52.220;5.160;2023-03-18T05:25:13;100767.38;;;12.46;81.83
68230;BME280;55048;52.220;5.160;2023-03-18T05:27:39;100771.91;;;12.46;81.90
68230;BME280;55048;52.220;5.160;2023-03-18T05:30:12;100809.19;;;12.68;81.97
68230;BME280;55048;52.220;5.160;2023-03-18T05:32:43;100777.22;;;12.46;82.30
68230;BME280;55048;52.220;5.160;2023-03-18T05:35:10;100766.75;;;12.39;82.53
68230;BME280;55048;52.220;5.160;2023-03-18T05:37:44;100791.69;;;12.50;83.11
68230;BME280;55048;52.220;5.160;2023-03-18T05:40:11;100800.50;;;12.50;83.46
68230;BME280;55048;52.220;5.160;2023-03-18T05:42:40;100793.34;;;12.56;83.25
68230;BME280;55048;52.220;5.160;2023-03-18T05:45:06;100753.63;;;12.33;83.59
68230;BME280;55048;52.220;5.160;2023-03-18T05:47:35;100792.50;;;12.50;84.32
68230;BME280;55048;52.220;5.160;2023-03-18T05:50:07;100730.31;;;12.01;84.77
68230;BME280;55048;52.220;5.160;2023-03-18T05:52:34;100779.78;;;12.36;84.71
68230;BME280;55048;52.220;5.160;2023-03-18T05:55:04;100818.09;;;12.51;84.61
68230;BME280;55048;52.220;5.160;2023-03-18T05:57:33;100774.09;;;12.27;84.98
68230;BME280;55048;52.220;5.160;2023-03-18T06:00:02;100799.91;;;12.48;85.11
68230;BME280;55048;52.220;5.160;2023-03-18T06:02:41;100782.38;;;12.31;85.29
68230;BME280;55048;52.220;5.160;2023-03-18T06:05:07;100818.91;;;12.52;85.10
68230;BME280;55048;52.220;5.160;2023-03-18T06:07:32;100818.91;;;12.52;85.04
68230;BME280;55048;52.220;5.160;2023-03-18T06:09:58;100821.25;;;12.48;85.76
68230;BME280;55048;52.220;5.160;2023-03-18T06:12:24;100796.44;;;12.26;85.69
68230;BME280;55048;52.220;5.160;2023-03-18T06:14:53;100729.94;;;11.92;86.02
68230;BME280;55048;52.220;5.160;2023-03-18T06:17:20;100821.81;;;12.50;85.61
68230;BME280;55048;52.220;5.160;2023-03-18T06:19:46;100772.91;;;12.18;85.70
68230;BME280;55048;52.220;5.160;2023-03-18T06:22:13;100818.47;;;12.38;86.04
68230;BME280;55048;52.220;5.160;2023-03-18T06:24:40;100826.03;;;12.46;86.76
68230;BME280;55048;52.220;5.160;2023-03-18T06:27:06;100837.53;;;12.47;86.35
68230;BME280;55048;52.220;5.160;2023-03-18T06:29:32;100739.41;;;11.83;86.46
68230;BME280;55048;52.220;5.160;2023-03-18T06:32:05;100822.69;;;12.34;86.70
68230;BME280;55048;52.220;5.160;2023-03-18T06:34:32;100807.69;;;12.28;86.75
68230;BME280;55048;52.220;5.160;2023-03-18T06:36:59;100821.03;;;12.28;88.05
68230;BME280;55048;52.220;5.160;2023-03-18T06:39:25;100819.56;;;12.20;87.08
68230;BME280;55048;52.220;5.160;2023-03-18T06:41:53;100828.75;;;12.30;86.89
68230;BME280;55048;52.220;5.160;2023-03-18T06:44:35;100841.78;;;12.48;87.24
68230;BME280;55048;52.220;5.160;2023-03-18T06:47:12;100852.78;;;12.51;87.51
68230;BME280;55048;52.220;5.160;2023-03-18T06:49:44;100856.56;;;12.56;87.05
68230;BME280;55048;52.220;5.160;2023-03-18T06:52:17;100834.53;;;12.43;87.28
68230;BME280;55048;52.220;5.160;2023-03-18T06:54:44;100847.94;;;12.48;87.90
68230;BME280;55048;52.220;5.160;2023-03-18T06:57:10;100847.13;;;12.48;88.04
68230;BME280;55048;52.220;5.160;2023-03-18T06:59:36;100788.91;;;12.18;87.40
68230;BME280;55048;52.220;5.160;2023-03-18T07:02:03;100801.72;;;12.21;88.26
68230;BME280;55048;52.220;5.160;2023-03-18T07:04:30;100852.16;;;12.66;87.37
68230;BME280;55048;52.220;5.160;2023-03-18T07:06:55;100822.19;;;12.37;87.32
68230;BME280;55048;52.220;5.160;2023-03-18T07:09:22;100872.47;;;12.72;86.77
68230;BME280;55048;52.220;5.160;2023-03-18T07:11:51;100866.22;;;12.62;86.86
68230;BME280;55048;52.220;5.160;2023-03-18T07:14:20;100787.78;;;12.14;86.68
68230;BME280;55048;52.220;5.160;2023-03-18T07:16:46;100794.25;;;12.18;86.73
68230;BME280;55048;52.220;5.160;2023-03-18T07:19:13;100874.34;;;12.72;86.90
68230;BME280;55048;52.220;5.160;2023-03-18T07:21:40;100863.69;;;12.72;86.41
68230;BME280;55048;52.220;5.160;2023-03-18T07:24:07;100890.03;;;12.90;86.14
68230;BME280;55048;52.220;5.160;2023-03-18T07:26:33;100897.16;;;13.07;85.86
68230;BME280;55048;52.220;5.160;2023-03-18T07:28:59;100888.00;;;12.97;86.20
68230;BME280;55048;52.220;5.160;2023-03-18T07:31:24;100880.03;;;13.02;85.86
68230;BME280;55048;52.220;5.160;2023-03-18T07:33:50;100902.88;;;13.15;85.86
68230;BME280;55048;52.220;5.160;2023-03-18T07:36:18;100880.22;;;12.96;86.07
68230;BME280;55048;52.220;5.160;2023-03-18T07:38:43;100906.03;;;13.12;86.34
68230;BME280;55048;52.220;5.160;2023-03-18T07:41:09;100856.84;;;12.81;86.27
68230;BME280;55048;52.220;5.160;2023-03-18T07:43:35;100887.06;;;12.87;86.45
68230;BME280;55048;52.220;5.160;2023-03-18T07:46:04;100911.22;;;12.97;86.70
68230;BME280;55048;52.220;5.160;2023-03-18T07:48:30;100896.44;;;12.89;87.28
68230;BME280;55048;52.220;5.160;2023-03-18T07:50:55;100848.69;;;12.66;86.82
68230;BME280;55048;52.220;5.160;2023-03-18T07:53:31;100814.69;;;12.34;87.19
68230;BME280;55048;52.220;5.160;2023-03-18T07:56:00;100763.53;;;12.15;86.61
68230;BME280;55048;52.220;5.160;2023-03-18T07:58:28;100918.53;;;13.07;86.31
68230;BME280;55048;52.220;5.160;2023-03-18T08:00:53;100793.94;;;12.36;88.16
68230;BME280;55048;52.220;5.160;2023-03-18T08:03:20;100889.41;;;13.05;86.72
68230;BME280;55048;52.220;5.160;2023-03-18T08:05:51;100838.13;;;13.03;86.35
68230;BME280;55048;52.220;5.160;2023-03-18T08:08:17;100797.41;;;12.91;85.04
68230;BME280;55048;52.220;5.160;2023-03-18T08:10:42;100903.44;;;13.76;84.23
68230;BME280;55048;52.220;5.160;2023-03-18T08:13:10;100863.34;;;13.76;83.66
68230;BME280;55048;52.220;5.160;2023-03-18T08:15:37;100893.78;;;14.13;82.81
68230;BME280;55048;52.220;5.160;2023-03-18T08:18:03;100755.66;;;13.34;82.48
68230;BME280;55048;52.220;5.160;2023-03-18T08:20:29;100757.28;;;13.40;81.83
68230;BME280;55048;52.220;5.160;2023-03-18T08:22:54;100779.31;;;13.57;81.58
68230;BME280;55048;52.220;5.160;2023-03-18T08:25:20;100914.84;;;14.46;81.40
68230;BME280;55048;52.220;5.160;2023-03-18T08:27:57;100795.63;;;13.61;81.27
68230;BME280;55048;52.220;5.160;2023-03-18T08:30:22;100852.09;;;14.22;80.85
68230;BME280;55048;52.220;5.160;2023-03-18T08:32:53;100861.81;;;14.33;80.75
68230;BME280;55048;52.220;5.160;2023-03-18T08:35:19;100907.75;;;14.72;80.65
68230;BME280;55048;52.220;5.160;2023-03-18T08:37:45;100815.19;;;14.19;80.33
68230;BME280;55048;52.220;5.160;2023-03-18T08:40:12;100797.00;;;14.16;79.98
68230;BME280;55048;52.220;5.160;2023-03-18T08:42:38;100825.63;;;14.20;79.66
68230;BME280;55048;52.220;5.160;2023-03-18T08:45:03;100848.19;;;14.45;79.27
68230;BME280;55048;52.220;5.160;2023-03-18T08:47:29;100817.91;;;14.29;79.07
68230;BME280;55048;52.220;5.160;2023-03-18T08:49:55;100861.47;;;14.77;78.30
68230;BME280;55048;52.220;5.160;2023-03-18T08:52:21;100858.00;;;14.92;77.63
68230;BME280;55048;52.220;5.160;2023-03-18T08:54:46;100910.34;;;15.35;76.99
68230;BME280;55048;52.220;5.160;2023-03-18T08:57:12;100896.66;;;15.31;76.89
68230;BME280;55048;52.220;5.160;2023-03-18T08:59:37;100857.28;;;15.12;75.36
68230;BME280;55048;52.220;5.160;2023-03-18T09:02:03;100918.94;;;15.57;75.40
68230;BME280;55048;52.220;5.160;2023-03-18T09:04:29;100905.53;;;15.57;75.23
68230;BME280;55048;52.220;5.160;2023-03-18T09:06:55;100900.22;;;15.68;74.81
68230;BME280;55048;52.220;5.160;2023-03-18T09:09:20;100890.56;;;15.72;74.08
68230;BME280;55048;52.220;5.160;2023-03-18T09:11:46;100916.81;;;15.95;74.06
68230;BME280;55048;52.220;5.160;2023-03-18T09:14:12;100910.91;;;15.88;73.76
68230;BME280;55048;52.220;5.160;2023-03-18T09:16:38;100913.88;;;15.81;73.64
68230;BME280;55048;52.220;5.160;2023-03-18T09:19:04;100922.19;;;15.95;73.22
68230;BME280;55048;52.220;5.160;2023-03-18T09:21:29;100888.69;;;15.67;73.74
68230;BME280;55048;52.220;5.160;2023-03-18T09:23:55;100905.84;;;15.76;73.60
68230;BME280;55048;52.220;5.160;2023-03-18T09:26:22;100930.75;;;16.02;73.25
68230;BME280;55048;52.220;5.160;2023-03-18T09:28:48;100934.50;;;16.12;73.16
68230;BME280;55048;52.220;5.160;2023-03-18T09:31:13;100898.56;;;15.92;72.71
68230;BME280;55048;52.220;5.160;2023-03-18T09:33:40;100924.06;;;16.05;71.92
68230;BME280;55048;52.220;5.160;2023-03-18T09:36:07;100925.59;;;16.26;71.52
68230;BME280;55048;52.220;5.160;2023-03-18T09:38:33;100945.69;;;16.44;71.42
68230;BME280;55048;52.220;5.160;2023-03-18T09:46:29;100917.78;;;16.45;70.47
68230;BME280;55048;52.220;5.160;2023-03-18T09:49:12;100955.09;;;16.52;70.56
68230;BME280;55048;52.220;5.160;2023-03-18T09:54:27;100947.03;;;16.37;70.74
68230;BME280;55048;52.220;5.160;2023-03-18T09:56:54;100902.03;;;16.08;70.72
68230;BME280;55048;52.220;5.160;2023-03-18T09:59:37;100958.84;;;16.56;70.16
68230;BME280;55048;52.220;5.160;2023-03-18T10:02:07;100962.56;;;16.65;69.80
68230;BME280;55048;52.220;5.160;2023-03-18T10:04:43;100966.31;;;16.79;69.15
68230;BME280;55048;52.220;5.160;2023-03-18T10:07:24;100965.22;;;16.80;68.94
68230;BME280;55048;52.220;5.160;2023-03-18T10:10:01;100956.63;;;16.73;68.96
68230;BME280;55048;52.220;5.160;2023-03-18T10:12:41;100929.03;;;16.52;68.83
68230;BME280;55048;52.220;5.160;2023-03-18T10:15:16;100844.41;;;15.85;69.25
68230;BME280;55048;52.220;5.160;2023-03-18T10:17:51;100931.97;;;16.61;68.56
68230;BME280;55048;52.220;5.160;2023-03-18T10:25:31;100814.72;;;16.36;67.27
68230;BME280;55048;52.220;5.160;2023-03-18T10:34:09;100942.47;;;17.17;67.27
68230;BME280;55048;52.220;5.160;2023-03-18T10:36:54;100945.66;;;17.24;67.42
68230;BME280;55048;52.220;5.160;2023-03-18T10:39:26;100936.53;;;17.20;67.24
68230;BME280;55048;52.220;5.160;2023-03-18T10:41:54;100930.59;;;17.23;66.80
68230;BME280;55048;52.220;5.160;2023-03-18T10:47:08;100821.66;;;16.52;65.98
68230;BME280;55048;52.220;5.160;2023-03-18T10:49:38;100863.66;;;16.82;66.23
68230;BME280;55048;52.220;5.160;2023-03-18T10:52:18;100950.88;;;17.50;65.83
68230;BME280;55048;52.220;5.160;2023-03-18T10:54:47;100930.97;;;17.51;65.45
68230;BME280;55048;52.220;5.160;2023-03-18T10:57:17;100940.38;;;17.53;65.32
68230;BME280;55048;52.220;5.160;2023-03-18T10:59:44;100946.78;;;17.57;65.21
68230;BME280;55048;52.220;5.160;2023-03-18T11:02:14;100940.72;;;17.42;65.10
68230;BME280;55048;52.220;5.160;2023-03-18T11:04:46;100925.75;;;17.30;64.79
68230;BME280;55048;52.220;5.160;2023-03-18T11:07:20;100891.66;;;17.21;64.36
68230;BME280;55048;52.220;5.160;2023-03-18T11:09:47;100883.44;;;17.07;64.96
68230;BME280;55048;52.220;5.160;2023-03-18T11:12:14;100945.41;;;17.60;64.59
68230;BME280;55048;52.220;5.160;2023-03-18T11:14:46;100915.81;;;17.26;63.61
68230;BME280;55048;52.220;5.160;2023-03-18T11:17:25;100936.41;;;17.41;64.01
68230;BME280;55048;52.220;5.160;2023-03-18T11:20:21;100943.00;;;17.19;65.60
68230;BME280;55048;52.220;5.160;2023-03-18T11:22:50;100930.13;;;17.11;64.90
68230;BME280;55048;52.220;5.160;2023-03-18T11:25:18;100943.50;;;17.26;65.12
68230;BME280;55048;52.220;5.160;2023-03-18T11:27:47;100960.22;;;17.18;64.92
68230;BME280;55048;52.220;5.160;2023-03-18T11:32:50;100937.78;;;16.89;66.31
68230;BME280;55048;52.220;5.160;2023-03-18T11:40:48;100955.81;;;16.78;67.68
68230;BME280;55048;52.220;5.160;2023-03-18T11:43:17;100938.94;;;16.72;67.34
68230;BME280;55048;52.220;5.160;2023-03-18T11:48:33;100971.13;;;16.67;68.05
68230;BME280;55048;52.220;5.160;2023-03-18T11:56:34;100960.91;;;16.85;66.79
68230;BME280;55048;52.220;5.160;2023-03-18T12:08:02;100903.66;;;16.89;65.99
68230;BME280;55048;52.220;5.160;2023-03-18T12:10:51;100941.66;;;17.22;65.67
68230;BME280;55048;52.220;5.160;2023-03-18T12:22:00;100925.44;;;17.32;64.31
68230;BME280;55048;52.220;5.160;2023-03-18T12:24:52;100938.28;;;17.45;63.74
68230;BME280;55048;52.220;5.160;2023-03-18T12:30:22;100913.53;;;17.04;63.34
68230;BME280;55048;52.220;5.160;2023-03-18T12:36:03;100944.72;;;17.00;61.10
68230;BME280;55048;52.220;5.160;2023-03-18T12:44:47;100958.38;;;17.08;61.89
68230;BME280;55048;52.220;5.160;2023-03-18T12:47:22;100911.25;;;16.67;63.67
68230;BME280;55048;52.220;5.160;2023-03-18T12:49:53;100917.94;;;16.69;63.19
68230;BME280;55048;52.220;5.160;2023-03-18T12:55:03;100947.97;;;16.92;63.29
68230;BME280;55048;52.220;5.160;2023-03-18T12:57:47;100951.44;;;17.02;63.31
68230;BME280;55048;52.220;5.160;2023-03-18T13:00:23;100931.28;;;17.00;62.49
68230;BME280;55048;52.220;5.160;2023-03-18T13:10:33;100947.81;;;17.22;62.92
68230;BME280;55048;52.220;5.160;2023-03-18T13:13:02;100900.69;;;16.91;62.04
68230;BME280;55048;52.220;5.160;2023-03-18T13:15:43;100868.75;;;16.89;61.89
68230;BME280;55048;52.220;5.160;2023-03-18T13:18:49;100946.28;;;17.50;60.33
68230;BME280;55048;52.220;5.160;2023-03-18T13:21:21;100933.19;;;17.39;60.63
68230;BME280;55048;52.220;5.160;2023-03-18T13:24:10;100934.41;;;17.56;60.69
68230;BME280;55048;52.220;5.160;2023-03-18T13:32:05;100939.72;;;17.67;59.58
68230;BME280;55048;52.220;5.160;2023-03-18T13:35:08;100941.47;;;17.47;60.60
68230;BME280;55048;52.220;5.160;2023-03-18T13:38:02;100853.94;;;16.92;60.80
68230;BME280;55048;52.220;5.160;2023-03-18T13:43:25;100920.47;;;17.54;60.18
68230;BME280;55048;52.220;5.160;2023-03-18T13:45:52;100924.28;;;17.43;60.50
68230;BME280;55048;52.220;5.160;2023-03-18T13:48:27;100928.31;;;17.46;60.47
68230;BME280;55048;52.220;5.160;2023-03-18T13:50:53;100946.13;;;17.71;59.97
68230;BME280;55048;52.220;5.160;2023-03-18T13:53:30;100889.72;;;17.31;59.91
68230;BME280;55048;52.220;5.160;2023-03-18T13:58:33;100909.41;;;17.56;59.44
68230;BME280;55048;52.220;5.160;2023-03-18T14:03:27;100935.91;;;17.78;59.80
68230;BME280;55048;52.220;5.160;2023-03-18T14:08:43;100945.81;;;17.82;60.25
68230;BME280;55048;52.220;5.160;2023-03-18T14:13:59;100932.97;;;17.74;60.42
68230;BME280;55048;52.220;5.160;2023-03-18T14:16:49;100862.63;;;17.23;60.90
68230;BME280;55048;52.220;5.160;2023-03-18T14:19:22;100934.75;;;17.50;60.71
68230;BME280;55048;52.220;5.160;2023-03-18T14:22:04;100891.34;;;17.27;61.64
68230;BME280;55048;52.220;5.160;2023-03-18T14:24:30;100918.47;;;17.65;61.46
68230;BME280;55048;52.220;5.160;2023-03-18T14:29:24;100820.88;;;17.36;60.93
68230;BME280;55048;52.220;5.160;2023-03-18T14:32:00;100902.13;;;17.96;60.86
68230;BME280;55048;52.220;5.160;2023-03-18T14:34:29;100903.22;;;17.90;60.89
68230;BME280;55048;52.220;5.160;2023-03-18T14:39:36;100864.50;;;17.56;60.69
68230;BME280;55048;52.220;5.160;2023-03-18T14:42:15;100890.38;;;17.87;60.61
68230;BME280;55048;52.220;5.160;2023-03-18T14:45:00;100845.22;;;17.49;60.38
68230;BME280;55048;52.220;5.160;2023-03-18T14:50:19;100879.19;;;17.69;61.89